Williford, AR (72482)

12:22 PM CST on November 22, 2014 (GMT -0600)
Rural Ravenden Springs | Change Station
CLOSE
Current Station
Personal Weather Station
Location: Ravenden Springs, AR
Elevation: 680 ft
Nearby Weather Stations

Elev 680 ft 36.31 °N, 91.20 °W | Updated 14 seconds ago

Overcast
Overcast
59.9 °F
Feels Like 59.9 °F
N
3.1
Wind Variable Wind from SW
Gusts 4.6 mph

Today
High -- | Low -- °F
--% Chance of Precip.
Yesterday
High -- | Low -- °F
Precip. -- in
6:49 AM 4:53 PM
New Moon, 0% visible
Pressure 30.13 in
Visibility 10.0 miles
Clouds Mostly Cloudy 7000 ft
Mostly Cloudy 8500 ft
Dew Point 35 °F
Humidity 39%
Rainfall 0.04 in
Snow Depth Not available.
UV 2 out of 12
Pollen 3.10 out of 12
Air Quality Not available.
Flu Activity Not available.
METAR KARG 221815Z AUTO 20019G26KT 10SM BKN070 BKN085 17/M03 A3013 RMK AO1

More Conditions Fewer Conditions

Pressure 30.13 in
Visibility 10.0 miles
Clouds Mostly Cloudy 7000 ft
Mostly Cloudy 8500 ft
Dew Point 35 °F
Humidity 39%
Rainfall 0.04 in
Snow Depth Not available.
UV 2 out of 12
Pollen 3.10 out of 12
Air Quality Not available.
Flu Activity Not available.
METAR KARG 221815Z AUTO 20019G26KT 10SM BKN070 BKN085 17/M03 A3013 RMK AO1

More Conditions Fewer Conditions

10-Day Weather Forecast

Almanac

Astronomy

Nov. 22, 2014 Rise Set
Actual Time
Civil Twilight
Nautical Twilight
Astronomical Twilight
Moon
Length of Visible Light
Length of Day
Tomorrow will be .
, % of the Moon is Illuminated

Today's Extremes

State Highs State Lows

Community

WunderPhotos

Upload Photos

1,772,872 photos uploaded!

WunderBlogs® & News

Nearby

Air Quality

  Air Quality AQ Index Pollutant
Not available.

Snow Depth

Station Depth Elevation

Earthquake Activity

City Distance Mag. Time & Date
Minimum magnitude displayed is 2.5.

Coastal Water Temperatures

Place Temperature

Nearby Weather Stations